Time;durP1;ratioP1;P1;durP2;ratioP2;P2;SDS_P1;SDS_P2;PMS_P1;PMS_P2;Temp;Humidity;BMP_temperature;BMP_pressure;BME280_temperature;BME280_humidity;BME280_pressure;Samples;Min_cycle;Max_cycle;Signal;HPM_P1;HPM_P2
2024/01/01 00:00:29;;;;;;;8.05;3.25;;;;;;;;;;2025822;29;20045;-53
2024/01/01 00:01:38;;;;;;;7.18;3.88;;;;;;;;;;2026140;29;20040;-53
2024/01/01 00:02:39;;;;;;;6.97;3.65;;;;;;;;;;2025921;29;20068;-53
2024/01/01 00:03:43;;;;;;;6.03;3.33;;;;;;;;;;2025501;29;20145;-53
2024/01/01 00:04:44;;;;;;;6.30;3.65;;;;;;;;;;2025986;29;20044;-53
2024/01/01 00:05:44;;;;;;;5.88;3.50;;;;;;;;;;2017114;29;20466;-53
2024/01/01 00:06:45;;;;;;;6.13;3.30;;;;;;;;;;2017729;29;20041;-53
2024/01/01 00:07:50;;;;;;;7.50;3.70;;;;;;;;;;2026012;29;20032;-53
2024/01/01 00:08:51;;;;;;;6.82;3.38;;;;;;;;;;2025998;29;20052;-53
2024/01/01 00:09:51;;;;;;;6.38;3.83;;;;;;;;;;2026149;29;20063;-53
2024/01/01 00:10:52;;;;;;;3.83;2.40;;;;;;;;;;2025210;29;20060;-53
2024/01/01 00:11:53;;;;;;;4.85;2.53;;;;;;;;;;2026165;29;20063;-53
2024/01/01 00:12:54;;;;;;;7.82;3.00;;;;;;;;;;2025999;29;20043;-53
2024/01/01 00:13:54;;;;;;;3.08;1.63;;;;;;;;;;2025558;29;20041;-53
2024/01/01 00:14:55;;;;;;;5.10;2.47;;;;;;;;;;2025663;29;20044;-53
2024/01/01 00:15:56;;;;;;;6.75;2.67;;;;;;;;;;2025887;29;20071;-53
2024/01/01 00:16:57;;;;;;;3.35;2.05;;;;;;;;;;2026063;29;20052;-53
2024/01/01 00:17:58;;;;;;;5.57;2.55;;;;;;;;;;2025837;29;20111;-53
2024/01/01 00:18:59;;;;;;;4.65;2.70;;;;;;;;;;2025215;29;20047;-53
2024/01/01 00:20:00;;;;;;;5.20;2.45;;;;;;;;;;2025992;29;20450;-53
2024/01/01 00:21:02;;;;;;;4.40;2.10;;;;;;;;;;2026103;29;20393;-53
2024/01/01 00:22:03;;;;;;;5.63;2.58;;;;;;;;;;2026106;29;20386;-53
2024/01/01 00:23:03;;;;;;;8.50;3.97;;;;;;;;;;2025599;29;20044;-53
2024/01/01 00:24:04;;;;;;;7.47;3.75;;;;;;;;;;2025971;29;20072;-53
2024/01/01 00:25:05;;;;;;;8.40;4.10;;;;;;;;;;2025273;29;20052;-53
2024/01/01 00:26:06;;;;;;;4.85;2.00;;;;;;;;;;2026037;29;20037;-53
2024/01/01 00:27:06;;;;;;;5.80;3.05;;;;;;;;;;2025202;29;20056;-53
2024/01/01 00:28:07;;;;;;;4.47;2.35;;;;;;;;;;2025444;29;20044;-53
2024/01/01 00:29:09;;;;;;;6.28;3.10;;;;;;;;;;2025946;29;20128;-53
2024/01/01 00:30:10;;;;;;;10.82;4.20;;;;;;;;;;2025583;29;20454;-53
2024/01/01 00:31:11;;;;;;;7.47;3.47;;;;;;;;;;2025538;29;20049;-53
2024/01/01 00:32:12;;;;;;;7.50;3.33;;;;;;;;;;2017675;29;20045;-53
2024/01/01 00:33:12;;;;;;;7.10;4.15;;;;;;;;;;2017315;29;20053;-53
2024/01/01 00:34:13;;;;;;;7.00;4.13;;;;;;;;;;2017716;29;20041;-53
2024/01/01 00:35:14;;;;;;;9.00;2.92;;;;;;;;;;2025959;29;20401;-53
2024/01/01 00:36:14;;;;;;;6.63;2.85;;;;;;;;;;2024862;29;20061;-53
2024/01/01 00:37:15;;;;;;;7.07;3.65;;;;;;;;;;2017628;29;20049;-53
2024/01/01 00:38:16;;;;;;;6.68;3.40;;;;;;;;;;2017701;29;20513;-53
2024/01/01 00:39:17;;;;;;;7.47;3.90;;;;;;;;;;2017593;29;20032;-53
2024/01/01 00:40:17;;;;;;;6.43;3.22;;;;;;;;;;2017347;29;20045;-53
2024/01/01 00:41:18;;;;;;;7.90;4.07;;;;;;;;;;2025981;29;20024;-53
2024/01/01 00:42:19;;;;;;;8.90;3.50;;;;;;;;;;2019337;29;20033;-53
2024/01/01 00:43:19;;;;;;;9.15;4.13;;;;;;;;;;2019129;29;20029;-53
2024/01/01 00:44:20;;;;;;;7.90;4.32;;;;;;;;;;2027474;29;20032;-53
2024/01/01 00:45:21;;;;;;;8.13;4.40;;;;;;;;;;2027350;29;20106;-53
2024/01/01 00:46:22;;;;;;;8.98;3.55;;;;;;;;;;2018761;29;20093;-53
2024/01/01 00:47:23;;;;;;;6.22;2.88;;;;;;;;;;2019305;29;20067;-53
2024/01/01 00:48:23;;;;;;;7.22;3.03;;;;;;;;;;2027430;29;20028;-53
2024/01/01 00:49:24;;;;;;;6.22;3.10;;;;;;;;;;2018737;29;20450;-53
2024/01/01 00:50:25;;;;;;;4.90;2.83;;;;;;;;;;2019232;29;20045;-52
2024/01/01 00:51:26;;;;;;;7.68;3.75;;;;;;;;;;2027225;29;20335;-53
2024/01/01 00:52:27;;;;;;;7.55;4.43;;;;;;;;;;2026707;29;20059;-53
2024/01/01 00:53:27;;;;;;;9.48;4.28;;;;;;;;;;2018972;29;20044;-53
2024/01/01 00:54:28;;;;;;;6.45;3.40;;;;;;;;;;2011760;29;20046;-53
2024/01/01 00:55:31;;;;;;;7.07;3.33;;;;;;;;;;2018987;29;20076;-53
2024/01/01 00:56:31;;;;;;;7.85;4.32;;;;;;;;;;2026451;29;20040;-53
2024/01/01 00:57:32;;;;;;;8.85;3.67;;;;;;;;;;2027232;29;20486;-53
2024/01/01 00:58:33;;;;;;;10.65;5.00;;;;;;;;;;2027410;29;20119;-53
2024/01/01 00:59:34;;;;;;;8.10;4.30;;;;;;;;;;2026662;29;20037;-53
2024/01/01 01:00:34;;;;;;;7.75;3.47;;;;;;;;;;2026713;29;20127;-53
2024/01/01 01:01:35;;;;;;;9.25;4.70;;;;;;;;;;2019007;29;20037;-53
2024/01/01 01:02:36;;;;;;;7.65;3.90;;;;;;;;;;2018084;29;20049;-53
2024/01/01 01:03:37;;;;;;;8.20;5.13;;;;;;;;;;2019135;29;20041;-53
2024/01/01 01:04:38;;;;;;;6.40;2.90;;;;;;;;;;2019050;29;20557;-53
2024/01/01 01:05:39;;;;;;;5.75;2.85;;;;;;;;;;2027228;29;20116;-53
2024/01/01 01:06:40;;;;;;;10.02;4.45;;;;;;;;;;2027374;29;20031;-53
2024/01/01 01:07:40;;;;;;;8.85;3.70;;;;;;;;;;2018795;29;20497;-53
2024/01/01 01:08:41;;;;;;;8.57;4.13;;;;;;;;;;2019135;29;20044;-53
2024/01/01 01:09:42;;;;;;;8.30;4.70;;;;;;;;;;2027277;29;20044;-53
2024/01/01 01:10:43;;;;;;;6.40;3.83;;;;;;;;;;2026316;29;20481;-53
2024/01/01 01:11:43;;;;;;;6.32;3.55;;;;;;;;;;2027230;29;20043;-53
2024/01/01 01:12:44;;;;;;;6.78;3.67;;;;;;;;;;2027231;29;20060;-53
2024/01/01 01:13:45;;;;;;;9.95;4.70;;;;;;;;;;2027262;29;20037;-53
2024/01/01 01:14:45;;;;;;;8.45;3.80;;;;;;;;;;2027134;29;20039;-53
2024/01/01 01:15:47;;;;;;;7.82;4.28;;;;;;;;;;2026391;29;20405;-53
2024/01/01 01:16:48;;;;;;;10.73;4.93;;;;;;;;;;2018769;29;20044;-53
2024/01/01 01:17:48;;;;;;;9.57;3.40;;;;;;;;;;2018384;29;20079;-52
2024/01/01 01:18:49;;;;;;;9.52;4.38;;;;;;;;;;2026069;29;20044;-53
2024/01/01 01:19:50;;;;;;;9.75;5.15;;;;;;;;;;2018842;29;20059;-53
2024/01/01 01:20:51;;;;;;;8.90;5.00;;;;;;;;;;2010666;29;20483;-53
2024/01/01 01:21:51;;;;;;;7.40;4.60;;;;;;;;;;2018954;29;20029;-54
2024/01/01 01:22:52;;;;;;;8.07;3.83;;;;;;;;;;2019034;29;20048;-53
2024/01/01 01:23:53;;;;;;;7.75;3.28;;;;;;;;;;2018310;29;20057;-53
2024/01/01 01:24:54;;;;;;;10.82;5.63;;;;;;;;;;2027172;29;20040;-53
2024/01/01 01:25:55;;;;;;;10.75;3.70;;;;;;;;;;2027311;29;20044;-53
2024/01/01 01:26:55;;;;;;;12.43;5.47;;;;;;;;;;2027068;29;20044;-53
2024/01/01 01:27:57;;;;;;;8.60;4.43;;;;;;;;;;2018787;29;20049;-53
2024/01/01 01:28:57;;;;;;;13.00;5.93;;;;;;;;;;2018764;29;20041;-53
2024/01/01 01:29:58;;;;;;;11.52;6.35;;;;;;;;;;2026483;29;20482;-53
2024/01/01 01:31:01;;;;;;;8.88;4.55;;;;;;;;;;2027065;29;20120;-53
2024/01/01 01:32:01;;;;;;;11.98;6.75;;;;;;;;;;2027083;29;20036;-53
2024/01/01 01:33:02;;;;;;;10.68;5.20;;;;;;;;;;2027091;29;20036;-53
2024/01/01 01:34:03;;;;;;;7.30;4.40;;;;;;;;;;2027038;29;20049;-53
2024/01/01 01:35:04;;;;;;;7.55;4.03;;;;;;;;;;2027231;29;20477;-53
2024/01/01 01:36:05;;;;;;;12.25;7.03;;;;;;;;;;2026449;29;20049;-53
2024/01/01 01:37:06;;;;;;;9.35;5.50;;;;;;;;;;2026557;29;20512;-53
2024/01/01 01:38:06;;;;;;;9.65;5.45;;;;;;;;;;2018823;29;20565;-53
2024/01/01 01:39:09;;;;;;;12.77;6.90;;;;;;;;;;2018649;29;20398;-53
2024/01/01 01:40:10;;;;;;;11.05;6.53;;;;;;;;;;2026958;29;20037;-53
2024/01/01 01:41:11;;;;;;;11.73;6.70;;;;;;;;;;2026409;29;20488;-53
2024/01/01 01:42:11;;;;;;;14.18;6.75;;;;;;;;;;2026969;29;20040;-53
2024/01/01 01:43:19;;;;;;;9.48;5.13;;;;;;;;;;2027011;29;20405;-53
2024/01/01 01:44:19;;;;;;;14.07;6.50;;;;;;;;;;2026495;29;20402;-53
2024/01/01 01:45:20;;;;;;;11.48;6.85;;;;;;;;;;2018310;29;20037;-53
2024/01/01 01:46:21;;;;;;;13.05;7.15;;;;;;;;;;2018665;29;20125;-53
2024/01/01 01:47:22;;;;;;;9.48;3.95;;;;;;;;;;2019049;29;20073;-53
2024/01/01 01:48:23;;;;;;;9.63;5.78;;;;;;;;;;2018010;29;20045;-53
2024/01/01 01:49:23;;;;;;;12.45;6.82;;;;;;;;;;2019078;29;20390;-53
2024/01/01 01:50:24;;;;;;;12.18;7.30;;;;;;;;;;2018590;29;20512;-53
2024/01/01 01:51:25;;;;;;;12.60;5.82;;;;;;;;;;2010812;29;20041;-53
2024/01/01 01:52:26;;;;;;;13.48;6.22;;;;;;;;;;2018429;29;20036;-52
2024/01/01 01:53:27;;;;;;;9.68;4.40;;;;;;;;;;2018322;29;20053;-54
2024/01/01 01:54:28;;;;;;;9.50;4.60;;;;;;;;;;2010892;29;20525;-53
2024/01/01 01:55:28;;;;;;;10.23;4.68;;;;;;;;;;2018037;29;20041;-53
2024/01/01 01:56:29;;;;;;;8.50;3.53;;;;;;;;;;2010879;29;20033;-53
2024/01/01 01:57:30;;;;;;;8.13;3.75;;;;;;;;;;2010817;29;20089;-53
2024/01/01 01:58:31;;;;;;;9.13;3.83;;;;;;;;;;2011044;29;20037;-53
2024/01/01 01:59:31;;;;;;;9.65;4.50;;;;;;;;;;2002769;29;20575;-53
2024/01/01 02:00:32;;;;;;;10.35;4.75;;;;;;;;;;2010848;29;20438;-53
2024/01/01 02:01:33;;;;;;;8.27;4.35;;;;;;;;;;2017839;29;20045;-53
2024/01/01 02:02:34;;;;;;;11.23;5.85;;;;;;;;;;2026623;29;20028;-53
2024/01/01 02:03:35;;;;;;;7.35;3.65;;;;;;;;;;2026283;29;20044;-53
2024/01/01 02:04:35;;;;;;;6.60;4.10;;;;;;;;;;2026324;29;20481;-53
2024/01/01 02:05:37;;;;;;;11.23;5.88;;;;;;;;;;2026782;29;20040;-53
2024/01/01 02:06:38;;;;;;;6.63;3.58;;;;;;;;;;2026775;29;20032;-53
2024/01/01 02:07:39;;;;;;;9.95;6.20;;;;;;;;;;2026994;29;20035;-53
2024/01/01 02:08:40;;;;;;;11.80;5.10;;;;;;;;;;2026250;29;20052;-53
2024/01/01 02:09:41;;;;;;;9.63;5.05;;;;;;;;;;2018451;29;20057;-53
2024/01/01 02:10:41;;;;;;;11.82;6.28;;;;;;;;;;2018518;29;20459;-53
2024/01/01 02:11:43;;;;;;;15.77;6.20;;;;;;;;;;2026801;29;20454;-53
2024/01/01 02:12:44;;;;;;;10.43;5.40;;;;;;;;;;2026727;29;20042;-52
2024/01/01 02:13:45;;;;;;;9.32;4.43;;;;;;;;;;2026878;29;20037;-53
2024/01/01 02:14:46;;;;;;;11.15;6.00;;;;;;;;;;2026858;29;20041;-53
2024/01/01 02:15:46;;;;;;;10.48;6.07;;;;;;;;;;2026166;29;20478;-53
2024/01/01 02:16:48;;;;;;;9.95;5.22;;;;;;;;;;2018506;29;20048;-53
2024/01/01 02:17:48;;;;;;;9.50;4.63;;;;;;;;;;2017924;29;20052;-53
2024/01/01 02:18:49;;;;;;;10.27;5.32;;;;;;;;;;2018607;29;20041;-53
2024/01/01 02:19:51;;;;;;;11.18;5.85;;;;;;;;;;2017943;29;20053;-53
2024/01/01 02:20:51;;;;;;;11.88;6.03;;;;;;;;;;2026886;29;20370;-53
2024/01/01 02:21:53;;;;;;;8.60;4.32;;;;;;;;;;2026136;29;20048;-53
2024/01/01 02:22:55;;;;;;;9.38;5.60;;;;;;;;;;2018590;29;20037;-53
2024/01/01 02:23:55;;;;;;;9.50;4.65;;;;;;;;;;2018665;29;20044;-53
2024/01/01 02:24:56;;;;;;;10.27;5.72;;;;;;;;;;2026715;29;20413;-53
2024/01/01 02:25:57;;;;;;;8.73;4.10;;;;;;;;;;2018414;29;20049;-53
2024/01/01 02:26:57;;;;;;;11.52;6.13;;;;;;;;;;2017739;29;20045;-53
2024/01/01 02:27:58;;;;;;;10.98;5.30;;;;;;;;;;2026712;29;20044;-53
2024/01/01 02:28:59;;;;;;;9.95;4.93;;;;;;;;;;2026645;29;20040;-53
2024/01/01 02:29:59;;;;;;;10.63;6.10;;;;;;;;;;2026637;29;20043;-53
2024/01/01 02:31:00;;;;;;;10.48;5.57;;;;;;;;;;2026055;29;20401;-53
2024/01/01 02:32:02;;;;;;;14.25;6.57;;;;;;;;;;2026671;29;20591;-54
2024/01/01 02:33:07;;;;;;;12.23;6.32;;;;;;;;;;2026757;29;20067;-54
2024/01/01 02:34:08;;;;;;;7.88;3.05;;;;;;;;;;2017683;29;20053;-53
2024/01/01 02:35:09;;;;;;;12.50;4.88;;;;;;;;;;2018275;29;20037;-53
2024/01/01 02:36:09;;;;;;;9.55;5.47;;;;;;;;;;2026561;29;20033;-53
2024/01/01 02:37:10;;;;;;;12.48;5.75;;;;;;;;;;2026761;29;20039;-53
2024/01/01 02:38:11;;;;;;;13.15;6.28;;;;;;;;;;2026481;29;20457;-52
2024/01/01 02:39:11;;;;;;;10.40;4.85;;;;;;;;;;2026746;29;20472;-53
2024/01/01 02:40:12;;;;;;;8.73;4.80;;;;;;;;;;2026567;29;20051;-53
2024/01/01 02:41:13;;;;;;;12.48;6.20;;;;;;;;;;2026585;29;20118;-53
2024/01/01 02:42:14;;;;;;;12.60;5.88;;;;;;;;;;2017670;29;20049;-53
2024/01/01 02:43:14;;;;;;;14.18;6.00;;;;;;;;;;2010212;29;20056;-53
2024/01/01 02:44:17;;;;;;;12.95;5.25;;;;;;;;;;2017968;29;20044;-53
2024/01/01 02:45:20;;;;;;;11.10;5.88;;;;;;;;;;2025935;29;20040;-53
2024/01/01 02:46:20;;;;;;;9.95;5.55;;;;;;;;;;2017934;29;20052;-53
2024/01/01 02:47:21;;;;;;;12.23;5.15;;;;;;;;;;2018013;29;20045;-53
2024/01/01 02:48:22;;;;;;;11.68;6.13;;;;;;;;;;2026068;29;20466;-53
2024/01/01 02:49:22;;;;;;;8.70;4.05;;;;;;;;;;2017445;29;20052;-53
2024/01/01 02:50:25;;;;;;;8.98;3.80;;;;;;;;;;2018276;29;20041;-54
2024/01/01 02:51:26;;;;;;;7.95;3.50;;;;;;;;;;2018179;29;20526;-53
2024/01/01 02:52:26;;;;;;;8.32;4.40;;;;;;;;;;2017905;29;20040;-53
2024/01/01 02:53:27;;;;;;;11.65;6.00;;;;;;;;;;2026507;29;20032;-54
2024/01/01 02:54:28;;;;;;;7.68;3.88;;;;;;;;;;2026633;29;20028;-53
2024/01/01 02:55:28;;;;;;;11.73;4.95;;;;;;;;;;2018078;29;20048;-53
2024/01/01 02:56:29;;;;;;;12.32;6.38;;;;;;;;;;2017852;29;20418;-53
2024/01/01 02:57:30;;;;;;;12.65;5.28;;;;;;;;;;2026614;29;20028;-53
2024/01/01 02:58:31;;;;;;;10.45;5.40;;;;;;;;;;2025793;29;20072;-53
2024/01/01 02:59:33;;;;;;;12.82;6.45;;;;;;;;;;2026437;29;20036;-53
2024/01/01 03:00:34;;;;;;;7.43;3.97;;;;;;;;;;2026347;29;20041;-53
2024/01/01 03:01:34;;;;;;;12.25;5.93;;;;;;;;;;2025538;29;20394;-54
2024/01/01 03:02:38;;;;;;;7.72;3.55;;;;;;;;;;2026085;29;20047;-53
2024/01/01 03:03:39;;;;;;;12.85;5.50;;;;;;;;;;2026439;29;20049;-53
2024/01/01 03:04:39;;;;;;;9.75;3.70;;;;;;;;;;2025804;29;20037;-53
2024/01/01 03:05:40;;;;;;;10.73;5.43;;;;;;;;;;2018180;29;20156;-53
2024/01/01 03:06:41;;;;;;;11.05;6.05;;;;;;;;;;2017539;29;20045;-53
2024/01/01 03:07:42;;;;;;;12.57;6.95;;;;;;;;;;2026396;29;20482;-54
2024/01/01 03:08:42;;;;;;;11.70;6.78;;;;;;;;;;2018293;29;20064;-53
2024/01/01 03:09:43;;;;;;;10.60;6.05;;;;;;;;;;2018106;29;20037;-53
2024/01/01 03:10:44;;;;;;;14.18;6.35;;;;;;;;;;2026296;29;20064;-53
2024/01/01 03:11:45;;;;;;;13.13;6.75;;;;;;;;;;2026342;29;20051;-52
2024/01/01 03:12:46;;;;;;;11.98;6.75;;;;;;;;;;2018314;29;20049;-54
2024/01/01 03:13:48;;;;;;;14.50;7.30;;;;;;;;;;2010048;29;20486;-53
2024/01/01 03:14:48;;;;;;;14.70;6.30;;;;;;;;;;2018062;29;20040;-53
2024/01/01 03:15:49;;;;;;;13.90;6.13;;;;;;;;;;2026364;29;20094;-53
2024/01/01 03:16:50;;;;;;;14.13;6.80;;;;;;;;;;2026299;29;20048;-53
2024/01/01 03:17:51;;;;;;;12.32;5.50;;;;;;;;;;2025409;29;20084;-53
2024/01/01 03:18:51;;;;;;;13.60;6.40;;;;;;;;;;2026221;29;20440;-53
2024/01/01 03:19:52;;;;;;;9.50;5.30;;;;;;;;;;2026408;29;20060;-53
2024/01/01 03:20:53;;;;;;;12.07;5.93;;;;;;;;;;2026405;29;20382;-53
2024/01/01 03:21:53;;;;;;;12.63;6.20;;;;;;;;;;2025946;29;20055;-53
2024/01/01 03:22:54;;;;;;;12.68;6.03;;;;;;;;;;2025487;29;20037;-53
2024/01/01 03:23:55;;;;;;;13.18;6.07;;;;;;;;;;2026278;29;20039;-53
2024/01/01 03:24:56;;;;;;;10.98;5.13;;;;;;;;;;2026306;29;20047;-53
2024/01/01 03:25:56;;;;;;;9.88;5.72;;;;;;;;;;2017907;29;20041;-53
2024/01/01 03:26:57;;;;;;;10.45;5.15;;;;;;;;;;2017930;29;20437;-53
2024/01/01 03:27:58;;;;;;;10.85;5.20;;;;;;;;;;2018024;29;20080;-53
2024/01/01 03:28:59;;;;;;;11.43;4.38;;;;;;;;;;2010355;29;20048;-53
2024/01/01 03:30:00;;;;;;;9.00;3.85;;;;;;;;;;2017627;29;20052;-53
2024/01/01 03:31:00;;;;;;;10.90;5.68;;;;;;;;;;2025413;29;20053;-53
2024/01/01 03:32:01;;;;;;;11.20;5.25;;;;;;;;;;2018201;29;20214;-53
2024/01/01 03:33:02;;;;;;;8.10;3.92;;;;;;;;;;2017848;29;20044;-52
2024/01/01 03:34:03;;;;;;;10.15;5.03;;;;;;;;;;2017505;29;20057;-53
2024/01/01 03:35:04;;;;;;;11.10;3.63;;;;;;;;;;2026206;29;20413;-53
2024/01/01 03:36:05;;;;;;;7.20;3.88;;;;;;;;;;2025219;29;20060;-53
2024/01/01 03:37:06;;;;;;;9.98;4.18;;;;;;;;;;2026172;29;20496;-53
2024/01/01 03:38:07;;;;;;;7.60;3.80;;;;;;;;;;2025406;29;20040;-53
2024/01/01 03:39:08;;;;;;;8.55;4.50;;;;;;;;;;2025531;29;20076;-53
2024/01/01 03:40:09;;;;;;;10.10;4.13;;;;;;;;;;2026120;29;20099;-53
2024/01/01 03:41:09;;;;;;;8.32;3.90;;;;;;;;;;2025234;29;20393;-53
2024/01/01 03:42:10;;;;;;;7.57;3.08;;;;;;;;;;2026708;29;20044;-57
2024/01/01 03:43:11;;;;;;;7.30;3.33;;;;;;;;;;2018628;29;20109;-53
2024/01/01 03:44:13;;;;;;;8.52;3.78;;;;;;;;;;2018181;29;20075;-54
2024/01/01 03:45:14;;;;;;;8.80;3.25;;;;;;;;;;2026995;29;20044;-53
2024/01/01 03:46:14;;;;;;;6.30;3.53;;;;;;;;;;2026436;29;20040;-56
2024/01/01 03:47:15;;;;;;;9.82;3.80;;;;;;;;;;2027165;29;20032;-53
2024/01/01 03:48:16;;;;;;;9.65;3.88;;;;;;;;;;2017979;29;20120;-53
2024/01/01 03:49:17;;;;;;;8.45;3.42;;;;;;;;;;2017747;29;20040;-53
2024/01/01 03:50:19;;;;;;;7.65;3.45;;;;;;;;;;2017221;29;20045;-53
2024/01/01 03:51:20;;;;;;;7.63;3.50;;;;;;;;;;2017222;29;20037;-53
2024/01/01 03:52:22;;;;;;;10.30;3.60;;;;;;;;;;2010164;29;20029;-54
2024/01/01 03:53:22;;;;;;;7.30;3.35;;;;;;;;;;2010169;29;20037;-53
2024/01/01 03:54:23;;;;;;;5.15;2.53;;;;;;;;;;2017370;29;20041;-53
2024/01/01 03:55:24;;;;;;;6.68;3.53;;;;;;;;;;2025560;29;20096;-53
2024/01/01 03:56:25;;;;;;;5.97;3.15;;;;;;;;;;2025255;29;20178;-53
2024/01/01 03:57:25;;;;;;;10.98;4.07;;;;;;;;;;2017662;29;20040;-53
2024/01/01 03:58:26;;;;;;;7.55;3.65;;;;;;;;;;2017797;29;20033;-53
2024/01/01 03:59:27;;;;;;;7.00;3.55;;;;;;;;;;2017688;29;20486;-53
2024/01/01 04:00:28;;;;;;;8.45;3.88;;;;;;;;;;2017555;29;20041;-53
2024/01/01 04:01:28;;;;;;;4.53;2.33;;;;;;;;;;2025611;29;20072;-53
2024/01/01 04:02:29;;;;;;;7.38;3.47;;;;;;;;;;2016987;29;20069;-53
2024/01/01 04:03:30;;;;;;;6.55;2.97;;;;;;;;;;2017794;29;20037;-53
2024/01/01 04:04:31;;;;;;;6.53;3.10;;;;;;;;;;2017170;29;20052;-53
2024/01/01 04:05:31;;;;;;;5.13;2.65;;;;;;;;;;2018023;29;20037;-53
2024/01/01 04:06:32;;;;;;;7.20;2.88;;;;;;;;;;2024877;29;20052;-53
2024/01/01 04:07:33;;;;;;;6.40;3.72;;;;;;;;;;2017694;29;20037;-53
2024/01/01 04:08:34;;;;;;;8.93;4.18;;;;;;;;;;2018038;29;20378;-53
2024/01/01 04:09:35;;;;;;;7.10;3.00;;;;;;;;;;2026014;29;20048;-53
2024/01/01 04:10:35;;;;;;;8.63;3.15;;;;;;;;;;2026001;29;20040;-53
2024/01/01 04:11:36;;;;;;;9.38;4.22;;;;;;;;;;2017589;29;20052;-53
2024/01/01 04:12:37;;;;;;;7.35;3.30;;;;;;;;;;2017219;29;20056;-53
2024/01/01 04:13:38;;;;;;;6.47;2.30;;;;;;;;;;2017677;29;20403;-53
2024/01/01 04:14:38;;;;;;;6.95;3.10;;;;;;;;;;2017656;29;20045;-53
2024/01/01 04:15:39;;;;;;;7.70;2.70;;;;;;;;;;2026634;29;20034;-53
2024/01/01 04:16:40;;;;;;;6.22;3.47;;;;;;;;;;2027753;29;20032;-53
2024/01/01 04:17:41;;;;;;;8.48;3.80;;;;;;;;;;2027698;29;20525;-53
2024/01/01 04:18:42;;;;;;;7.40;3.65;;;;;;;;;;2027765;29;20036;-53
2024/01/01 04:19:47;;;;;;;8.10;3.85;;;;;;;;;;2027742;29;20041;-53
2024/01/01 04:20:47;;;;;;;7.55;3.60;;;;;;;;;;2027617;29;20040;-53
2024/01/01 04:21:48;;;;;;;7.78;3.55;;;;;;;;;;2027597;29;20035;-53
2024/01/01 04:22:51;;;;;;;7.50;4.28;;;;;;;;;;2027266;29;20052;-53
2024/01/01 04:23:54;;;;;;;11.60;3.88;;;;;;;;;;2026981;29;20500;-53
2024/01/01 04:24:55;;;;;;;8.02;4.63;;;;;;;;;;2027612;29;20409;-53
2024/01/01 04:25:55;;;;;;;8.18;3.78;;;;;;;;;;2027551;29;20057;-53
2024/01/01 04:26:56;;;;;;;5.13;2.55;;;;;;;;;;2026779;29;20037;-54
2024/01/01 04:27:57;;;;;;;6.90;2.55;;;;;;;;;;2027604;29;20045;-53
2024/01/01 04:28:57;;;;;;;6.18;3.35;;;;;;;;;;2027471;29;20048;-53
2024/01/01 04:29:58;;;;;;;8.23;2.97;;;;;;;;;;2027634;29;20044;-53
2024/01/01 04:30:59;;;;;;;7.68;3.83;;;;;;;;;;2027469;29;20402;-53
2024/01/01 04:31:59;;;;;;;10.10;3.63;;;;;;;;;;2027573;29;20085;-53
2024/01/01 04:33:00;;;;;;;8.80;3.50;;;;;;;;;;2027618;29;20111;-53
2024/01/01 04:34:01;;;;;;;8.65;3.97;;;;;;;;;;2027506;29;20045;-53
2024/01/01 04:35:03;;;;;;;8.90;3.88;;;;;;;;;;2027509;29;20036;-53
2024/01/01 04:36:04;;;;;;;7.45;4.10;;;;;;;;;;2027436;29;20040;-53
2024/01/01 04:37:04;;;;;;;9.98;4.68;;;;;;;;;;2026951;29;20063;-53
2024/01/01 04:38:05;;;;;;;6.07;3.13;;;;;;;;;;2027565;29;20036;-53
2024/01/01 04:39:06;;;;;;;6.47;3.30;;;;;;;;;;2027526;29;20043;-53
2024/01/01 04:40:07;;;;;;;6.68;3.25;;;;;;;;;;2026814;29;20048;-53
2024/01/01 04:41:09;;;;;;;7.43;3.42;;;;;;;;;;2027128;29;20055;-53
2024/01/01 04:42:09;;;;;;;7.65;3.05;;;;;;;;;;2027372;29;20044;-53
2024/01/01 04:43:10;;;;;;;7.18;2.88;;;;;;;;;;2027560;29;20039;-53
2024/01/01 04:44:11;;;;;;;6.25;3.25;;;;;;;;;;2027448;29;20044;-53
2024/01/01 04:45:12;;;;;;;9.95;3.10;;;;;;;;;;2027433;29;20441;-53
2024/01/01 04:46:13;;;;;;;4.93;2.47;;;;;;;;;;2026880;29;20095;-54
2024/01/01 04:47:13;;;;;;;8.05;3.38;;;;;;;;;;2027554;29;20033;-53
2024/01/01 04:48:14;;;;;;;6.93;3.47;;;;;;;;;;2026893;29;20040;-53
2024/01/01 04:49:15;;;;;;;6.57;2.60;;;;;;;;;;2027362;29;20056;-53
2024/01/01 04:50:15;;;;;;;7.78;3.53;;;;;;;;;;2027368;29;20477;-53
2024/01/01 04:51:16;;;;;;;7.13;3.50;;;;;;;;;;2027475;29;20028;-53
2024/01/01 04:52:17;;;;;;;6.25;2.75;;;;;;;;;;2026581;29;20040;-53
2024/01/01 04:53:18;;;;;;;8.70;2.75;;;;;;;;;;2026765;29;20045;-53
2024/01/01 04:54:18;;;;;;;6.85;3.72;;;;;;;;;;2027052;29;20044;-53
2024/01/01 04:55:19;;;;;;;7.75;3.65;;;;;;;;;;2027281;29;20032;-53
2024/01/01 04:56:21;;;;;;;7.85;2.33;;;;;;;;;;2027246;29;20391;-53
2024/01/01 04:57:22;;;;;;;7.20;3.08;;;;;;;;;;2027486;29;20033;-53
2024/01/01 04:58:22;;;;;;;6.45;3.33;;;;;;;;;;2027431;29;20028;-53
2024/01/01 04:59:23;;;;;;;9.23;3.95;;;;;;;;;;2027175;29;20398;-53
2024/01/01 05:00:24;;;;;;;6.47;3.13;;;;;;;;;;2027105;29;20055;-53
2024/01/01 05:01:27;;;;;;;8.23;3.33;;;;;;;;;;2026525;29;20037;-53
2024/01/01 05:02:27;;;;;;;6.50;3.33;;;;;;;;;;2026111;29;20478;-53
2024/01/01 05:03:28;;;;;;;6.35;3.75;;;;;;;;;;2027720;29;20037;-53
2024/01/01 05:04:29;;;;;;;6.47;2.95;;;;;;;;;;2027275;29;20041;-53
2024/01/01 05:05:29;;;;;;;6.80;3.50;;;;;;;;;;2026678;29;20044;-53
2024/01/01 05:06:30;;;;;;;5.68;2.55;;;;;;;;;;2026815;29;20052;-53
2024/01/01 05:07:31;;;;;;;8.63;4.07;;;;;;;;;;2027252;29;20385;-53
2024/01/01 05:08:32;;;;;;;10.65;3.65;;;;;;;;;;2027213;29;20088;-53
2024/01/01 05:09:33;;;;;;;6.35;3.25;;;;;;;;;;2027522;29;20040;-53
2024/01/01 05:10:33;;;;;;;6.88;3.08;;;;;;;;;;2027447;29;20044;-53
2024/01/01 05:11:38;;;;;;;6.03;2.75;;;;;;;;;;2027190;29;20048;-53
2024/01/01 05:12:39;;;;;;;5.45;2.97;;;;;;;;;;2027244;29;20048;-53
2024/01/01 05:13:40;;;;;;;5.10;1.90;;;;;;;;;;2026418;29;20397;-53
2024/01/01 05:14:40;;;;;;;5.38;2.33;;;;;;;;;;2027256;29;20044;-53
2024/01/01 05:15:43;;;;;;;6.90;2.33;;;;;;;;;;2027248;29;20040;-53
2024/01/01 05:16:44;;;;;;;6.80;3.30;;;;;;;;;;2027370;29;20154;-53
2024/01/01 05:17:44;;;;;;;5.53;2.20;;;;;;;;;;2018854;29;20045;-53
2024/01/01 05:18:45;;;;;;;8.88;3.42;;;;;;;;;;2018887;29;20044;-53
2024/01/01 05:19:46;;;;;;;5.47;2.92;;;;;;;;;;2026242;29;20069;-53
2024/01/01 05:20:46;;;;;;;3.28;1.85;;;;;;;;;;2027096;29;20040;-53
2024/01/01 05:21:47;;;;;;;4.65;2.20;;;;;;;;;;2027201;29;20063;-53
2024/01/01 05:22:48;;;;;;;5.88;2.40;;;;;;;;;;2027188;29;20110;-53
2024/01/01 05:23:49;;;;;;;7.68;2.90;;;;;;;;;;2027411;29;20040;-53
2024/01/01 05:24:49;;;;;;;5.05;2.25;;;;;;;;;;2027358;29;20385;-53
2024/01/01 05:25:50;;;;;;;5.93;2.50;;;;;;;;;;2027195;29;20039;-53
2024/01/01 05:26:51;;;;;;;5.18;2.10;;;;;;;;;;2026970;29;20041;-53
2024/01/01 05:27:52;;;;;;;5.60;2.30;;;;;;;;;;2026603;29;20035;-53
2024/01/01 05:28:52;;;;;;;5.82;2.70;;;;;;;;;;2026987;29;20029;-53
2024/01/01 05:29:53;;;;;;;2.05;1.23;;;;;;;;;;2027282;29;20382;-52
2024/01/01 05:30:55;;;;;;;5.85;3.00;;;;;;;;;;2027369;29;20049;-53
2024/01/01 05:31:55;;;;;;;5.53;2.95;;;;;;;;;;2027068;29;20048;-53
2024/01/01 05:32:56;;;;;;;5.50;1.90;;;;;;;;;;2027068;29;20495;-53
2024/01/01 05:33:57;;;;;;;3.15;1.23;;;;;;;;;;2027035;29;20048;-53
2024/01/01 05:34:58;;;;;;;7.78;2.75;;;;;;;;;;2027151;29;20485;-53
2024/01/01 05:35:58;;;;;;;4.85;2.15;;;;;;;;;;2026437;29;20060;-53
2024/01/01 05:36:59;;;;;;;5.80;2.97;;;;;;;;;;2027042;29;20037;-53
2024/01/01 05:38:00;;;;;;;2.97;1.52;;;;;;;;;;2027013;29;20037;-53
2024/01/01 05:39:01;;;;;;;4.10;2.13;;;;;;;;;;2026286;29;20056;-53
2024/01/01 05:40:02;;;;;;;4.72;2.05;;;;;;;;;;2026984;29;20374;-53
2024/01/01 05:41:03;;;;;;;4.32;1.80;;;;;;;;;;2027030;29;20044;-53
2024/01/01 05:42:04;;;;;;;5.03;2.17;;;;;;;;;;2026957;29;20501;-53
2024/01/01 05:43:04;;;;;;;3.63;1.92;;;;;;;;;;2026991;29;20127;-53
2024/01/01 05:44:05;;;;;;;3.83;1.30;;;;;;;;;;2027098;29;20029;-53
2024/01/01 05:45:06;;;;;;;3.83;1.92;;;;;;;;;;2018755;29;20037;-53
2024/01/01 05:46:07;;;;;;;4.90;1.92;;;;;;;;;;2018104;29;20092;-52
2024/01/01 05:47:07;;;;;;;3.22;1.48;;;;;;;;;;2026277;29;20051;-53
2024/01/01 05:48:08;;;;;;;7.20;1.73;;;;;;;;;;2026812;29;20033;-53
2024/01/01 05:49:09;;;;;;;4.97;2.13;;;;;;;;;;2026632;29;20040;-53
2024/01/01 05:50:10;;;;;;;3.40;1.33;;;;;;;;;;2027056;29;20036;-53
2024/01/01 05:51:10;;;;;;;2.63;1.55;;;;;;;;;;2026991;29;20103;-53
2024/01/01 05:52:11;;;;;;;4.07;1.88;;;;;;;;;;2027075;29;20029;-53
2024/01/01 05:53:12;;;;;;;3.30;1.67;;;;;;;;;;2026877;29;20040;-53
2024/01/01 05:54:12;;;;;;;3.75;1.23;;;;;;;;;;2026927;29;20040;-53
2024/01/01 05:55:13;;;;;;;7.93;2.15;;;;;;;;;;2027026;29;20043;-53
2024/01/01 05:56:14;;;;;;;5.50;2.08;;;;;;;;;;2026842;29;20397;-53
2024/01/01 05:57:15;;;;;;;3.13;1.48;;;;;;;;;;2026919;29;20040;-53
2024/01/01 05:58:15;;;;;;;2.95;1.60;;;;;;;;;;2026278;29;20048;-53
2024/01/01 05:59:16;;;;;;;3.80;1.40;;;;;;;;;;2026970;29;20025;-53
2024/01/01 06:00:19;;;;;;;4.55;2.03;;;;;;;;;;2026776;29;20042;-53
2024/01/01 06:01:19;;;;;;;4.57;1.80;;;;;;;;;;2026778;29;20110;-53
2024/01/01 06:02:20;;;;;;;2.50;0.98;;;;;;;;;;2026515;29;20107;-53
2024/01/01 06:03:21;;;;;;;4.60;1.48;;;;;;;;;;2026258;29;20049;-53
2024/01/01 06:04:21;;;;;;;2.63;1.17;;;;;;;;;;2026874;29;20496;-53